createdAt,value
2022-11-03T00:01:34.671Z,18.03
2022-11-03T00:04:02.412Z,12.23
2022-11-03T00:06:30.079Z,11.03
2022-11-03T00:09:01.143Z,12.87
2022-11-03T00:11:29.289Z,9.80
2022-11-03T00:13:57.791Z,14.30
2022-11-03T00:16:25.448Z,10.70
2022-11-03T00:18:53.372Z,12.97
2022-11-03T00:21:21.081Z,12.17
2022-11-03T00:23:49.202Z,8.30
2022-11-03T00:26:20.806Z,10.30
2022-11-03T00:28:52.464Z,9.20
2022-11-03T00:31:22.136Z,11.83
2022-11-03T00:33:50.293Z,12.40
2022-11-03T00:36:20.625Z,8.87
2022-11-03T00:38:48.744Z,10.80
2022-11-03T00:41:20.624Z,10.60
2022-11-03T00:43:49.843Z,7.60
2022-11-03T00:46:18.135Z,8.73
2022-11-03T00:48:46.075Z,9.67
2022-11-03T00:51:16.527Z,8.30
2022-11-03T00:53:45.668Z,14.33
2022-11-03T00:56:19.679Z,11.43
2022-11-03T00:58:47.836Z,9.30
2022-11-03T01:01:17.610Z,7.00
2022-11-03T01:04:06.822Z,13.53
2022-11-03T01:06:50.672Z,5.93
2022-11-03T01:09:18.628Z,7.80
2022-11-03T01:11:58.539Z,13.00
2022-11-03T01:14:28.543Z,8.73
2022-11-03T01:16:56.494Z,8.77
2022-11-03T01:19:25.257Z,8.80
2022-11-03T01:21:53.552Z,6.50
2022-11-03T01:24:21.742Z,7.63
2022-11-03T01:26:51.002Z,8.30
2022-11-03T01:29:19.003Z,5.67
2022-11-03T01:31:46.707Z,7.10
2022-11-03T01:34:16.467Z,16.60
2022-11-03T01:36:44.844Z,9.53
2022-11-03T01:39:13.974Z,8.93
2022-11-03T01:41:43.079Z,7.93
2022-11-03T01:44:34.179Z,11.70
2022-11-03T01:47:16.154Z,8.70
2022-11-03T01:49:48.072Z,8.70
2022-11-03T01:52:20.934Z,10.53
2022-11-03T01:54:52.739Z,13.07
2022-11-03T01:57:25.539Z,9.00
2022-11-03T01:59:55.997Z,10.13
2022-11-03T02:02:27.341Z,5.30
2022-11-03T02:04:56.689Z,6.20
2022-11-03T02:07:30.078Z,12.03
2022-11-03T02:09:57.851Z,11.23
2022-11-03T02:12:25.758Z,10.07
2022-11-03T02:14:58.959Z,7.77
2022-11-03T02:17:29.911Z,6.50
2022-11-03T02:20:01.066Z,10.13
2022-11-03T02:22:49.853Z,7.37
2022-11-03T02:25:31.233Z,8.67
2022-11-03T02:27:59.351Z,8.10
2022-11-03T02:30:29.645Z,10.20
2022-11-03T02:33:04.210Z,7.87
2022-11-03T02:35:38.622Z,8.40
2022-11-03T02:38:10.712Z,9.70
2022-11-03T02:40:46.437Z,10.53
2022-11-03T02:43:16.442Z,9.07
2022-11-03T02:45:47.799Z,8.67
2022-11-03T02:48:16.875Z,7.70
2022-11-03T02:50:45.203Z,10.53
2022-11-03T02:53:14.057Z,8.73
2022-11-03T02:55:53.432Z,5.27
2022-11-03T02:58:29.232Z,7.50
2022-11-03T03:01:04.034Z,9.80
2022-11-03T03:03:36.743Z,7.60
2022-11-03T03:06:09.455Z,7.70
2022-11-03T03:08:43.950Z,6.10
2022-11-03T03:11:14.545Z,7.50
2022-11-03T03:13:45.077Z,10.03
2022-11-03T03:16:17.656Z,8.47
2022-11-03T03:18:52.228Z,8.27
2022-11-03T03:21:25.115Z,5.10
2022-11-03T03:23:58.483Z,6.73
2022-11-03T03:26:30.930Z,7.47
2022-11-03T03:29:03.991Z,10.67
2022-11-03T03:31:37.879Z,5.90
2022-11-03T03:34:31.228Z,13.53
2022-11-03T03:36:59.833Z,10.10
2022-11-03T03:39:32.732Z,5.90
2022-11-03T03:42:04.445Z,10.97
2022-11-03T03:44:33.540Z,9.33
2022-11-03T03:47:04.851Z,6.20
2022-11-03T03:49:32.488Z,5.70
2022-11-03T03:52:00.486Z,7.47
2022-11-03T03:54:28.147Z,7.10
2022-11-03T03:57:01.711Z,10.33
2022-11-03T03:59:31.303Z,7.80
2022-11-03T04:01:59.575Z,6.47
2022-11-03T04:04:27.437Z,6.03
2022-11-03T04:07:15.302Z,7.27
2022-11-03T04:09:42.916Z,6.30
2022-11-03T04:12:28.475Z,13.30
2022-11-03T04:15:14.899Z,10.33
2022-11-03T04:18:02.930Z,8.73
2022-11-03T04:20:48.254Z,11.30
2022-11-03T04:23:15.933Z,6.57
2022-11-03T04:25:50.710Z,5.47
2022-11-03T04:28:19.738Z,6.30
2022-11-03T04:30:48.714Z,7.33
2022-11-03T04:33:18.408Z,5.70
2022-11-03T04:35:47.274Z,6.77
2022-11-03T04:38:24.088Z,6.17
2022-11-03T04:40:55.158Z,6.50
2022-11-03T04:43:25.102Z,4.67
2022-11-03T04:45:54.138Z,8.13
2022-11-03T04:48:23.518Z,6.37
2022-11-03T04:50:54.661Z,11.50
2022-11-03T04:53:23.812Z,5.70
2022-11-03T04:55:54.162Z,7.40
2022-11-03T04:58:23.465Z,9.43
2022-11-03T05:00:54.855Z,6.13
2022-11-03T05:03:25.403Z,5.90
2022-11-03T05:05:53.062Z,11.87
2022-11-03T05:08:22.197Z,8.07
2022-11-03T05:10:50.757Z,8.60
2022-11-03T05:13:22.500Z,9.07
2022-11-03T05:15:52.275Z,6.87
2022-11-03T05:18:23.436Z,11.60
2022-11-03T05:20:55.071Z,8.30
2022-11-03T05:23:23.844Z,4.70
2022-11-03T05:25:54.252Z,4.77
2022-11-03T05:28:25.760Z,6.67
2022-11-03T05:30:54.118Z,6.87
2022-11-03T05:33:30.936Z,4.70
2022-11-03T05:36:02.014Z,5.77
2022-11-03T05:38:33.486Z,6.80
2022-11-03T05:41:02.218Z,7.27
2022-11-03T05:43:30.620Z,12.77
2022-11-03T05:46:02.768Z,8.97
2022-11-03T05:48:35.325Z,8.57
2022-11-03T05:51:11.704Z,6.17
2022-11-03T05:53:43.238Z,5.83
2022-11-03T05:56:16.986Z,7.57
2022-11-03T05:58:45.586Z,6.83
2022-11-03T06:01:17.700Z,13.67
2022-11-03T06:03:47.538Z,6.83
2022-11-03T06:06:19.897Z,8.67
2022-11-03T06:08:48.362Z,11.90
2022-11-03T06:11:23.811Z,10.43
2022-11-03T06:13:51.480Z,10.83
2022-11-03T06:16:38.094Z,19.13
2022-11-03T06:19:19.515Z,10.50
2022-11-03T06:21:47.423Z,15.50
2022-11-03T06:24:16.929Z,11.90
2022-11-03T06:26:46.535Z,12.93
2022-11-03T06:29:17.150Z,9.30
2022-11-03T06:31:47.893Z,11.40
2022-11-03T06:34:28.819Z,14.93
2022-11-03T06:36:58.268Z,10.03
2022-11-03T06:39:26.380Z,10.03
2022-11-03T06:41:54.151Z,9.20
2022-11-03T06:44:25.345Z,16.93
2022-11-03T06:46:55.316Z,24.27
2022-11-03T06:49:30.560Z,11.70
2022-11-03T06:52:00.331Z,15.33
2022-11-03T06:54:27.997Z,12.00
2022-11-03T06:56:55.692Z,12.70
2022-11-03T06:59:23.344Z,7.90
2022-11-03T07:01:55.547Z,10.13
2022-11-03T07:04:29.038Z,10.80
2022-11-03T07:07:00.253Z,12.73
2022-11-03T07:09:28.095Z,11.90
2022-11-03T07:11:58.025Z,11.80
2022-11-03T07:14:28.657Z,13.53
2022-11-03T07:17:00.586Z,16.97
2022-11-03T07:19:34.106Z,14.90
2022-11-03T07:22:03.561Z,24.53
2022-11-03T07:24:33.952Z,21.73
2022-11-03T07:27:08.535Z,22.50
2022-11-03T07:29:36.161Z,28.33
2022-11-03T07:32:10.537Z,29.40
2022-11-03T07:34:39.570Z,26.73
2022-11-03T07:37:15.162Z,23.27
2022-11-03T07:39:42.812Z,29.17
2022-11-03T07:42:16.460Z,32.93
2022-11-03T07:44:44.232Z,20.87
2022-11-03T07:47:14.739Z,32.40
2022-11-03T07:49:43.817Z,21.03
2022-11-03T07:52:14.789Z,20.20
2022-11-03T07:54:42.476Z,18.73
2022-11-03T07:57:16.815Z,18.97
2022-11-03T07:59:48.493Z,14.10
2022-11-03T08:02:30.810Z,23.80
2022-11-03T08:05:00.101Z,12.93
2022-11-03T08:07:28.459Z,18.53
2022-11-03T08:09:56.373Z,18.03
2022-11-03T08:12:24.266Z,18.37
2022-11-03T08:14:51.913Z,18.17
2022-11-03T08:17:19.594Z,17.83
2022-11-03T08:19:47.244Z,18.37
2022-11-03T08:22:16.277Z,21.10
2022-11-03T08:24:44.141Z,19.00
2022-11-03T08:27:11.827Z,18.23
2022-11-03T08:29:39.506Z,15.03
2022-11-03T08:32:07.137Z,25.23
2022-11-03T08:34:34.769Z,26.40
2022-11-03T08:37:02.507Z,23.37
2022-11-03T08:39:32.194Z,33.70
2022-11-03T08:41:59.852Z,15.27
2022-11-03T08:44:27.512Z,19.03
2022-11-03T08:46:55.151Z,19.40
2022-11-03T08:49:22.805Z,18.90
2022-11-03T08:51:50.469Z,13.40
2022-11-03T08:54:18.199Z,15.73
2022-11-03T08:56:48.843Z,18.70
2022-11-03T08:59:18.002Z,19.90
2022-11-03T09:01:45.952Z,20.43
2022-11-03T09:04:13.746Z,34.57
2022-11-03T09:06:41.657Z,18.57
2022-11-03T09:11:58.347Z,25.23
2022-11-03T09:14:26.000Z,18.83
2022-11-03T09:16:53.735Z,17.40
2022-11-03T09:19:21.558Z,18.10
2022-11-03T09:21:49.261Z,19.27
2022-11-03T09:24:16.912Z,20.40
2022-11-03T09:26:44.741Z,17.87
2022-11-03T09:29:13.771Z,22.10
2022-11-03T09:31:41.465Z,20.00
2022-11-03T09:34:09.128Z,28.17
2022-11-03T09:36:36.771Z,26.03
2022-11-03T09:39:04.464Z,23.87
2022-11-03T09:41:55.737Z,23.87
2022-11-03T09:44:22.546Z,23.10
2022-11-03T09:46:55.424Z,25.10
2022-11-03T09:49:26.000Z,21.33
2022-11-03T09:51:54.117Z,23.40
2022-11-03T09:54:21.805Z,27.23
2022-11-03T09:56:49.557Z,19.80
2022-11-03T09:59:18.671Z,20.23
2022-11-03T10:01:50.759Z,20.20
2022-11-03T10:04:22.864Z,22.00
2022-11-03T10:06:50.572Z,22.10
2022-11-03T10:09:20.631Z,25.40
2022-11-03T10:11:48.897Z,24.53
2022-11-03T10:14:18.935Z,20.70
2022-11-03T10:16:53.578Z,20.60
2022-11-03T10:19:21.508Z,21.60
2022-11-03T10:21:49.207Z,22.40
2022-11-03T10:24:20.300Z,19.80
2022-11-03T10:26:49.796Z,21.40
2022-11-03T10:29:20.873Z,23.20
2022-11-03T10:31:51.948Z,18.00
2022-11-03T10:34:28.925Z,17.50
2022-11-03T10:37:18.205Z,20.57
2022-11-03T10:39:46.160Z,16.90
2022-11-03T10:42:22.013Z,16.80
2022-11-03T10:44:53.023Z,18.30
2022-11-03T10:47:32.085Z,13.57
2022-11-03T10:50:00.358Z,12.50
2022-11-03T10:52:30.420Z,17.67
2022-11-03T10:55:00.282Z,15.23
2022-11-03T10:57:28.530Z,15.60
2022-11-03T10:59:56.858Z,15.90
2022-11-03T11:02:31.202Z,14.00
2022-11-03T11:05:01.289Z,18.20
2022-11-03T11:07:33.697Z,16.33
2022-11-03T11:10:08.231Z,12.20
2022-11-03T11:12:36.303Z,14.80
2022-11-03T11:15:25.118Z,11.93
2022-11-03T11:17:54.199Z,13.60
2022-11-03T11:20:34.736Z,10.70
2022-11-03T11:23:48.920Z,16.17
2022-11-03T11:26:38.693Z,12.93
2022-11-03T11:29:45.032Z,10.80
2022-11-03T11:32:51.124Z,14.07
2022-11-03T11:36:05.355Z,13.20
2022-11-03T11:39:10.767Z,11.60
2022-11-03T11:42:10.255Z,15.00
2022-11-03T11:44:46.811Z,15.03
2022-11-03T11:47:26.778Z,12.17
2022-11-03T11:50:17.005Z,9.20
2022-11-03T11:52:47.859Z,11.73
2022-11-03T11:55:21.455Z,11.80
2022-11-03T11:57:49.416Z,10.63
2022-11-03T12:00:23.814Z,13.53
2022-11-03T12:02:52.439Z,13.30
2022-11-03T12:05:22.710Z,13.53
2022-11-03T12:07:51.978Z,13.43
2022-11-03T12:10:23.725Z,12.63
2022-11-03T12:12:51.529Z,12.00
2022-11-03T12:15:51.512Z,10.10
2022-11-03T12:18:38.915Z,20.53
2022-11-03T12:21:09.681Z,15.77
2022-11-03T12:23:42.695Z,11.80
2022-11-03T12:26:20.091Z,17.73
2022-11-03T12:28:47.736Z,13.73
2022-11-03T12:31:15.377Z,17.97
2022-11-03T12:33:43.047Z,13.07
2022-11-03T12:36:10.929Z,12.60
2022-11-03T12:38:39.165Z,14.83
2022-11-03T12:41:24.288Z,10.93
2022-11-03T12:43:55.888Z,12.33
2022-11-03T12:46:24.642Z,11.73
2022-11-03T12:48:52.541Z,11.70
2022-11-03T12:51:21.879Z,20.20
2022-11-03T12:53:50.391Z,8.97
2022-11-03T12:56:19.395Z,9.30
2022-11-03T12:58:48.294Z,11.87
2022-11-03T13:01:21.615Z,13.70
2022-11-03T13:03:50.429Z,10.90
2022-11-03T13:06:18.300Z,12.73
2022-11-03T13:08:47.848Z,11.67
2022-11-03T13:11:37.166Z,16.70
2022-11-03T13:14:08.566Z,20.53
2022-11-03T13:16:39.082Z,19.23
2022-11-03T13:19:06.773Z,12.90
2022-11-03T13:21:35.907Z,15.27
2022-11-03T13:24:03.579Z,15.13
2022-11-03T13:26:31.274Z,13.20
2022-11-03T13:28:58.999Z,11.50
2022-11-03T13:31:26.683Z,9.70
2022-11-03T13:33:55.706Z,11.47
2022-11-03T13:36:23.509Z,10.90
2022-11-03T13:38:52.466Z,9.80
2022-11-03T13:41:20.174Z,10.30
2022-11-03T13:43:47.857Z,8.60
2022-11-03T13:46:15.532Z,9.20
2022-11-03T13:51:32.300Z,10.50
2022-11-03T13:59:35.918Z,8.23
2022-11-03T14:04:51.349Z,12.20
2022-11-03T14:07:20.336Z,12.70
2022-11-03T14:09:48.032Z,11.70
2022-11-03T14:12:29.710Z,10.17
2022-11-03T14:14:57.425Z,11.97
2022-11-03T14:17:25.260Z,11.73
2022-11-03T14:19:55.558Z,9.50
2022-11-03T14:22:30.283Z,11.13
2022-11-03T14:24:57.971Z,10.70
2022-11-03T14:27:26.182Z,11.10
2022-11-03T14:29:54.237Z,13.13
2022-11-03T14:32:22.110Z,21.97
2022-11-03T14:34:49.841Z,12.40
2022-11-03T14:37:17.698Z,15.50
2022-11-03T14:39:46.833Z,12.60
2022-11-03T14:42:15.602Z,9.47
2022-11-03T14:44:46.218Z,11.20
2022-11-03T14:47:17.517Z,15.90
2022-11-03T14:49:45.899Z,12.63
2022-11-03T14:52:14.541Z,13.23
2022-11-03T14:54:42.966Z,12.63
2022-11-03T14:57:12.122Z,11.20
2022-11-03T14:59:40.844Z,17.80
2022-11-03T15:02:08.540Z,11.73
2022-11-03T15:04:36.304Z,14.93
2022-11-03T15:07:03.989Z,13.33
2022-11-03T15:09:31.657Z,13.37
2022-11-03T15:11:59.322Z,11.60
2022-11-03T15:14:29.759Z,14.73
2022-11-03T15:16:57.446Z,15.43
2022-11-03T15:19:25.100Z,22.30
2022-11-03T15:21:52.765Z,15.70
2022-11-03T15:27:08.186Z,13.70
2022-11-03T15:29:38.419Z,16.40
2022-11-03T15:32:06.937Z,13.13
2022-11-03T15:34:34.629Z,15.77
2022-11-03T15:37:02.339Z,11.73
2022-11-03T15:39:30.633Z,16.67
2022-11-03T15:42:00.073Z,13.53
2022-11-03T15:44:27.774Z,12.90
2022-11-03T15:46:56.816Z,15.93
2022-11-03T15:49:24.595Z,17.80
2022-11-03T15:51:52.423Z,16.20
2022-11-03T15:54:20.115Z,17.60
2022-11-03T15:56:47.888Z,17.07
2022-11-03T15:59:15.578Z,14.23
2022-11-03T16:01:43.390Z,16.27
2022-11-03T16:04:12.844Z,17.00
2022-11-03T16:07:06.094Z,16.97
2022-11-03T16:09:29.582Z,18.97
2022-11-03T16:11:57.308Z,20.30
2022-11-03T16:14:25.071Z,19.80
2022-11-03T16:16:52.883Z,20.07
2022-11-03T16:19:21.868Z,22.40
2022-11-03T16:21:49.583Z,21.07
2022-11-03T16:24:17.433Z,19.87
2022-11-03T16:26:45.216Z,17.63
2022-11-03T16:29:12.905Z,19.73
2022-11-03T16:31:40.568Z,22.80
2022-11-03T16:34:08.303Z,20.20
2022-11-03T16:36:39.212Z,20.03
2022-11-03T16:39:06.850Z,20.23
2022-11-03T16:41:36.417Z,20.60
2022-11-03T16:44:04.180Z,25.37
2022-11-03T16:46:31.869Z,21.33
2022-11-03T16:51:32.259Z,22.87
2022-11-03T16:54:01.377Z,21.43
2022-11-03T16:56:29.089Z,21.47
2022-11-03T16:58:56.775Z,23.23
2022-11-03T17:01:24.584Z,23.10
2022-11-03T17:03:53.943Z,24.13
2022-11-03T17:06:21.600Z,27.10
2022-11-03T17:08:53.476Z,27.67
2022-11-03T17:11:36.742Z,22.60
2022-11-03T17:14:06.026Z,21.23
2022-11-03T17:16:34.267Z,26.57
2022-11-03T17:19:02.002Z,25.40
2022-11-03T17:21:29.681Z,25.97
2022-11-03T17:23:59.239Z,29.07
2022-11-03T17:26:37.756Z,25.23
2022-11-03T17:29:14.686Z,22.83
2022-11-03T17:31:42.525Z,25.13
2022-11-03T17:34:12.953Z,22.93
2022-11-03T17:36:41.232Z,29.77
2022-11-03T17:39:09.610Z,28.47
2022-11-03T17:41:38.616Z,22.73
2022-11-03T17:44:11.977Z,26.00
2022-11-03T17:46:39.762Z,28.67
2022-11-03T17:49:07.540Z,27.03
2022-11-03T17:51:36.672Z,23.87
2022-11-03T17:54:08.058Z,28.10
2022-11-03T17:56:36.417Z,36.63
2022-11-03T17:59:05.698Z,31.50
2022-11-03T18:01:33.603Z,21.00
2022-11-03T18:04:02.657Z,24.47
2022-11-03T18:06:30.773Z,23.77
2022-11-03T18:08:59.402Z,17.63
2022-11-03T18:11:48.787Z,24.93
2022-11-03T18:14:18.279Z,25.50
2022-11-03T18:16:46.514Z,19.03
2022-11-03T18:19:16.053Z,18.23
2022-11-03T18:21:44.003Z,19.67
2022-11-03T18:24:14.135Z,23.10
2022-11-03T18:26:42.389Z,19.80
2022-11-03T18:29:10.406Z,17.17
2022-11-03T18:31:42.307Z,19.90
2022-11-03T18:34:15.291Z,19.80
2022-11-03T18:36:43.203Z,24.53
2022-11-03T18:39:15.444Z,20.67
2022-11-03T18:41:43.996Z,25.27
2022-11-03T18:44:16.415Z,20.67
2022-11-03T18:46:45.744Z,17.17
2022-11-03T18:49:13.740Z,18.80
2022-11-03T18:51:45.761Z,19.73
2022-11-03T18:54:15.362Z,17.00
2022-11-03T18:56:43.389Z,16.70
2022-11-03T18:59:19.587Z,23.47
2022-11-03T19:01:48.751Z,19.03
2022-11-03T19:04:16.823Z,19.03
2022-11-03T19:06:47.122Z,19.47
2022-11-03T19:09:19.563Z,20.00
2022-11-03T19:11:49.793Z,15.40
2022-11-03T19:14:24.504Z,24.63
2022-11-03T19:17:22.491Z,15.83
2022-11-03T19:19:42.298Z,21.67
2022-11-03T19:22:14.349Z,16.80
2022-11-03T19:24:46.121Z,19.00
2022-11-03T19:27:17.717Z,16.60
2022-11-03T19:29:47.703Z,21.13
2022-11-03T19:32:20.261Z,18.53
2022-11-03T19:34:52.516Z,19.70
2022-11-03T19:37:20.190Z,20.60
2022-11-03T19:39:48.389Z,25.53
2022-11-03T19:42:28.454Z,16.73
2022-11-03T19:44:57.873Z,17.00
2022-11-03T19:47:31.606Z,19.30
2022-11-03T19:50:02.343Z,20.73
2022-11-03T19:52:31.610Z,20.20
2022-11-03T19:55:02.820Z,14.67
2022-11-03T19:57:34.172Z,16.10
2022-11-03T20:00:03.009Z,17.50
2022-11-03T20:02:37.019Z,16.87
2022-11-03T20:05:05.290Z,19.60
2022-11-03T20:07:33.108Z,15.43
2022-11-03T20:10:02.811Z,19.40
2022-11-03T20:12:31.582Z,13.40
2022-11-03T20:14:59.373Z,16.37
2022-11-03T20:17:27.242Z,16.17
2022-11-03T20:19:56.404Z,15.37
2022-11-03T20:22:30.151Z,17.70
2022-11-03T20:25:00.306Z,13.47
2022-11-03T20:27:28.401Z,16.50
2022-11-03T20:29:56.381Z,24.93
2022-11-03T20:32:24.103Z,16.10
2022-11-03T20:34:51.746Z,16.00
2022-11-03T20:37:21.615Z,13.60
2022-11-03T20:39:49.949Z,13.50
2022-11-03T20:42:21.536Z,16.80
2022-11-03T20:44:49.327Z,18.43
2022-11-03T20:47:18.038Z,17.27
2022-11-03T20:49:46.466Z,19.33
2022-11-03T20:52:15.302Z,19.50
2022-11-03T20:54:44.593Z,16.40
2022-11-03T20:57:13.660Z,12.90
2022-11-03T20:59:41.949Z,17.67
2022-11-03T21:02:12.884Z,16.63
2022-11-03T21:04:40.976Z,17.60
2022-11-03T21:07:12.200Z,20.30
2022-11-03T21:09:40.098Z,16.33
2022-11-03T21:12:13.063Z,21.47
2022-11-03T21:15:03.929Z,18.00
2022-11-03T21:17:49.161Z,17.23
2022-11-03T21:20:16.976Z,15.87
2022-11-03T21:22:53.925Z,18.90
2022-11-03T21:25:23.953Z,15.53
2022-11-03T21:27:54.230Z,19.77
2022-11-03T21:30:23.518Z,14.57
2022-11-03T21:32:51.410Z,15.17
2022-11-03T21:35:21.426Z,13.40
2022-11-03T21:37:49.379Z,24.47
2022-11-03T21:40:17.649Z,15.17
2022-11-03T21:43:02.649Z,16.20
2022-11-03T21:45:31.858Z,13.77
2022-11-03T21:48:17.524Z,14.70
2022-11-03T21:50:45.737Z,12.07
2022-11-03T21:53:13.677Z,12.70
2022-11-03T21:55:41.699Z,16.17
2022-11-03T21:58:09.675Z,15.00
2022-11-03T22:00:38.835Z,16.33
2022-11-03T22:03:06.967Z,18.57
2022-11-03T22:05:35.027Z,14.03
2022-11-03T22:08:02.752Z,17.63
2022-11-03T22:10:30.429Z,15.63
2022-11-03T22:12:58.232Z,15.63
2022-11-03T22:15:43.363Z,19.63
2022-11-03T22:18:12.847Z,15.93
2022-11-03T22:20:58.295Z,13.80
2022-11-03T22:23:43.627Z,18.80
2022-11-03T22:26:30.255Z,20.70
2022-11-03T22:29:16.989Z,16.77
2022-11-03T22:31:44.745Z,16.90
2022-11-03T22:34:31.667Z,15.10
2022-11-03T22:36:59.637Z,16.57
2022-11-03T22:39:44.877Z,16.83
2022-11-03T22:42:31.172Z,18.20
2022-11-03T22:45:16.307Z,16.40
2022-11-03T22:47:44.016Z,21.40
2022-11-03T22:50:13.032Z,17.07
2022-11-03T22:52:40.811Z,22.57
2022-11-03T22:55:07.752Z,14.30
2022-11-03T22:57:35.416Z,22.00
2022-11-03T23:00:05.592Z,17.13
2022-11-03T23:02:33.506Z,18.40
2022-11-03T23:05:01.291Z,16.60
2022-11-03T23:07:32.382Z,17.30
2022-11-03T23:10:04.576Z,15.77
2022-11-03T23:12:32.839Z,15.37
2022-11-03T23:15:18.062Z,14.80
2022-11-03T23:18:03.197Z,12.00
2022-11-03T23:20:56.699Z,12.87
2022-11-03T23:23:43.094Z,14.73
2022-11-03T23:26:11.128Z,16.87
2022-11-03T23:28:38.870Z,12.30
2022-11-03T23:31:07.151Z,12.00
2022-11-03T23:33:35.513Z,11.50
2022-11-03T23:36:07.784Z,12.23
2022-11-03T23:38:38.051Z,7.80
2022-11-03T23:41:07.855Z,7.63
2022-11-03T23:43:35.885Z,6.10
2022-11-03T23:46:20.701Z,11.53
2022-11-03T23:48:48.878Z,7.20
2022-11-03T23:51:17.390Z,4.20
2022-11-03T23:53:47.071Z,8.70
2022-11-03T23:56:34.074Z,7.60
2022-11-03T23:59:01.848Z,9.90
